sensor_id;sensor_type;location;lat;lon;timestamp;pressure;altitude;pressure_sealevel;temperature;humidity
10510;BME280;5303;53.266;10.410;2023-04-28T00:01:44;101602.28;;;4.69;72.66
10510;BME280;5303;53.266;10.410;2023-04-28T00:04:09;101609.19;;;4.67;72.74
10510;BME280;5303;53.266;10.410;2023-04-28T00:06:34;101605.63;;;4.65;73.30
10510;BME280;5303;53.266;10.410;2023-04-28T00:09:00;101605.50;;;4.60;72.69
10510;BME280;5303;53.266;10.410;2023-04-28T00:11:25;101601.88;;;4.56;73.09
10510;BME280;5303;53.266;10.410;2023-04-28T00:13:50;101596.53;;;4.53;73.52
10510;BME280;5303;53.266;10.410;2023-04-28T00:16:16;101596.38;;;4.49;73.41
10510;BME280;5303;53.266;10.410;2023-04-28T00:18:41;101591.94;;;4.46;73.17
10510;BME280;5303;53.266;10.410;2023-04-28T00:21:06;101596.22;;;4.44;72.92
10510;BME280;5303;53.266;10.410;2023-04-28T00:23:32;101586.63;;;4.43;73.56
10510;BME280;5303;53.266;10.410;2023-04-28T00:25:58;101585.69;;;4.41;73.59
10510;BME280;5303;53.266;10.410;2023-04-28T00:28:23;101577.66;;;4.37;73.86
10510;BME280;5303;53.266;10.410;2023-04-28T00:30:48;101590.69;;;4.35;73.86
10510;BME280;5303;53.266;10.410;2023-04-28T00:33:13;101584.47;;;4.31;73.20
10510;BME280;5303;53.266;10.410;2023-04-28T00:35:39;101580.84;;;4.28;74.17
10510;BME280;5303;53.266;10.410;2023-04-28T00:38:05;101579.03;;;4.25;73.83
10510;BME280;5303;53.266;10.410;2023-04-28T00:40:38;101573.75;;;4.24;73.84
10510;BME280;5303;53.266;10.410;2023-04-28T00:43:04;101575.47;;;4.23;74.51
10510;BME280;5303;53.266;10.410;2023-04-28T00:45:29;101571.06;;;4.21;74.36
10510;BME280;5303;53.266;10.410;2023-04-28T00:47:55;101570.88;;;4.16;74.34
10510;BME280;5303;53.266;10.410;2023-04-28T00:50:22;101567.28;;;4.13;74.88
10510;BME280;5303;53.266;10.410;2023-04-28T00:52:48;101559.22;;;4.07;74.32
10510;BME280;5303;53.266;10.410;2023-04-28T00:55:14;101566.94;;;4.03;74.88
10510;BME280;5303;53.266;10.410;2023-04-28T00:57:41;101561.63;;;4.00;74.76
10510;BME280;5303;53.266;10.410;2023-04-28T01:00:07;101557.13;;;3.96;74.63
10510;BME280;5303;53.266;10.410;2023-04-28T01:02:34;101556.19;;;3.94;75.26
10510;BME280;5303;53.266;10.410;2023-04-28T01:05:00;101556.91;;;3.90;74.56
10510;BME280;5303;53.266;10.410;2023-04-28T01:07:26;101548.28;;;3.93;74.66
10510;BME280;5303;53.266;10.410;2023-04-28T01:09:51;101553.47;;;3.91;75.03
10510;BME280;5303;53.266;10.410;2023-04-28T01:12:16;101559.47;;;3.89;75.06
10510;BME280;5303;53.266;10.410;2023-04-28T01:14:42;101551.41;;;3.83;75.21
10510;BME280;5303;53.266;10.410;2023-04-28T01:17:07;101549.53;;;3.79;75.34
10510;BME280;5303;53.266;10.410;2023-04-28T01:19:33;101543.28;;;3.75;74.84
10510;BME280;5303;53.266;10.410;2023-04-28T01:21:58;101545.81;;;3.72;75.14
10510;BME280;5303;53.266;10.410;2023-04-28T01:24:23;101540.41;;;3.67;75.66
10510;BME280;5303;53.266;10.410;2023-04-28T01:26:49;101540.41;;;3.67;75.72
10510;BME280;5303;53.266;10.410;2023-04-28T01:29:14;101534.25;;;3.65;75.13
10510;BME280;5303;53.266;10.410;2023-04-28T01:31:39;101543.75;;;3.63;74.90
10510;BME280;5303;53.266;10.410;2023-04-28T01:34:06;101540.19;;;3.61;75.37
10510;BME280;5303;53.266;10.410;2023-04-28T01:36:31;101540.97;;;3.59;75.35
10510;BME280;5303;53.266;10.410;2023-04-28T01:38:57;101540.75;;;3.53;74.92
10510;BME280;5303;53.266;10.410;2023-04-28T01:41:23;101530.19;;;3.50;75.22
10510;BME280;5303;53.266;10.410;2023-04-28T01:43:48;101538.03;;;3.50;74.89
10510;BME280;5303;53.266;10.410;2023-04-28T01:46:13;101529.19;;;3.46;74.92
10510;BME280;5303;53.266;10.410;2023-04-28T01:48:39;101525.63;;;3.44;74.70
10510;BME280;5303;53.266;10.410;2023-04-28T01:51:04;101533.41;;;3.42;74.39
10510;BME280;5303;53.266;10.410;2023-04-28T01:53:29;101539.41;;;3.40;74.18
10510;BME280;5303;53.266;10.410;2023-04-28T01:55:55;101522.72;;;3.36;74.13
10510;BME280;5303;53.266;10.410;2023-04-28T01:58:20;101531.34;;;3.34;74.18
10510;BME280;5303;53.266;10.410;2023-04-28T02:00:46;101533.84;;;3.31;74.40
10510;BME280;5303;53.266;10.410;2023-04-28T02:03:11;101527.63;;;3.27;74.68
10510;BME280;5303;53.266;10.410;2023-04-28T02:05:37;101527.50;;;3.24;74.60
10510;BME280;5303;53.266;10.410;2023-04-28T02:08:02;101522.16;;;3.21;74.67
10510;BME280;5303;53.266;10.410;2023-04-28T02:10:28;101524.72;;;3.20;74.58
10510;BME280;5303;53.266;10.410;2023-04-28T02:12:53;101513.41;;;3.19;75.34
10510;BME280;5303;53.266;10.410;2023-04-28T02:15:19;101516.72;;;3.15;75.03
10510;BME280;5303;53.266;10.410;2023-04-28T02:17:44;101513.00;;;3.08;75.34
10510;BME280;5303;53.266;10.410;2023-04-28T02:20:09;101516.34;;;3.06;75.58
10510;BME280;5303;53.266;10.410;2023-04-28T02:22:35;101512.69;;;3.01;75.52
10510;BME280;5303;53.266;10.410;2023-04-28T02:25:00;101516.13;;;3.00;75.69
10510;BME280;5303;53.266;10.410;2023-04-28T02:27:26;101509.91;;;2.96;75.96
10510;BME280;5303;53.266;10.410;2023-04-28T02:29:51;101509.72;;;2.92;76.06
10510;BME280;5303;53.266;10.410;2023-04-28T02:32:16;101506.19;;;2.89;76.24
10510;BME280;5303;53.266;10.410;2023-04-28T02:34:42;101507.75;;;2.86;76.55
10510;BME280;5303;53.266;10.410;2023-04-28T02:37:07;101505.09;;;2.84;76.44
10510;BME280;5303;53.266;10.410;2023-04-28T02:39:32;101505.88;;;2.82;76.70
10510;BME280;5303;53.266;10.410;2023-04-28T02:41:57;101508.44;;;2.80;76.81
10510;BME280;5303;53.266;10.410;2023-04-28T02:44:23;101500.56;;;2.79;76.97
10510;BME280;5303;53.266;10.410;2023-04-28T02:46:48;101506.66;;;2.79;76.73
10510;BME280;5303;53.266;10.410;2023-04-28T02:49:13;101496.22;;;2.79;76.53
10510;BME280;5303;53.266;10.410;2023-04-28T02:51:39;101499.66;;;2.78;76.63
10510;BME280;5303;53.266;10.410;2023-04-28T02:54:04;101500.50;;;2.77;76.61
10510;BME280;5303;53.266;10.410;2023-04-28T02:56:29;101490.75;;;2.73;76.96
10510;BME280;5303;53.266;10.410;2023-04-28T02:58:55;101480.22;;;2.70;76.93
10510;BME280;5303;53.266;10.410;2023-04-28T03:01:21;101477.63;;;2.70;76.74
10510;BME280;5303;53.266;10.410;2023-04-28T03:03:46;101475.91;;;2.71;77.00
10510;BME280;5303;53.266;10.410;2023-04-28T03:06:11;101464.50;;;2.67;76.98
10510;BME280;5303;53.266;10.410;2023-04-28T03:08:36;101466.13;;;2.65;77.08
10510;BME280;5303;53.266;10.410;2023-04-28T03:11:02;101462.47;;;2.60;76.97
10510;BME280;5303;53.266;10.410;2023-04-28T03:13:27;101462.34;;;2.57;77.09
10510;BME280;5303;53.266;10.410;2023-04-28T03:15:54;101456.16;;;2.55;77.40
10510;BME280;5303;53.266;10.410;2023-04-28T03:18:19;101460.59;;;2.56;77.43
10510;BME280;5303;53.266;10.410;2023-04-28T03:20:44;101448.34;;;2.55;77.30
10510;BME280;5303;53.266;10.410;2023-04-28T03:23:10;101452.69;;;2.54;77.57
10510;BME280;5303;53.266;10.410;2023-04-28T03:25:35;101445.69;;;2.53;77.40
10510;BME280;5303;53.266;10.410;2023-04-28T03:28:00;101440.50;;;2.53;77.36
10510;BME280;5303;53.266;10.410;2023-04-28T03:30:26;101441.47;;;2.55;77.55
10510;BME280;5303;53.266;10.410;2023-04-28T03:32:51;101446.59;;;2.54;77.65
10510;BME280;5303;53.266;10.410;2023-04-28T03:35:17;101442.25;;;2.54;77.70
10510;BME280;5303;53.266;10.410;2023-04-28T03:37:42;101443.03;;;2.52;77.41
10510;BME280;5303;53.266;10.410;2023-04-28T03:40:08;101434.16;;;2.47;77.48
10510;BME280;5303;53.266;10.410;2023-04-28T03:42:33;101429.78;;;2.46;77.32
10510;BME280;5303;53.266;10.410;2023-04-28T03:44:59;101426.22;;;2.44;77.25
10510;BME280;5303;53.266;10.410;2023-04-28T03:47:24;101426.06;;;2.39;76.96
10510;BME280;5303;53.266;10.410;2023-04-28T03:49:49;101414.81;;;2.40;77.53
10510;BME280;5303;53.266;10.410;2023-04-28T03:52:16;101414.75;;;2.39;77.59
10510;BME280;5303;53.266;10.410;2023-04-28T03:54:41;101414.75;;;2.39;77.20
10510;BME280;5303;53.266;10.410;2023-04-28T03:57:06;101412.97;;;2.38;77.46
10510;BME280;5303;53.266;10.410;2023-04-28T03:59:32;101405.22;;;2.39;77.28
10510;BME280;5303;53.266;10.410;2023-04-28T04:01:57;101403.44;;;2.38;77.53
10510;BME280;5303;53.266;10.410;2023-04-28T04:04:22;101406.09;;;2.40;77.49
10510;BME280;5303;53.266;10.410;2023-04-28T04:06:47;101399.28;;;2.43;77.85
10510;BME280;5303;53.266;10.410;2023-04-28T04:09:13;101413.34;;;2.47;77.47
10510;BME280;5303;53.266;10.410;2023-04-28T04:11:39;101404.03;;;2.53;77.87
10510;BME280;5303;53.266;10.410;2023-04-28T04:14:04;101408.59;;;2.59;78.17
10510;BME280;5303;53.266;10.410;2023-04-28T04:16:30;101398.41;;;2.65;77.83
10510;BME280;5303;53.266;10.410;2023-04-28T04:18:55;101409.94;;;2.72;77.59
10510;BME280;5303;53.266;10.410;2023-04-28T04:21:21;101403.97;;;2.74;77.33
10510;BME280;5303;53.266;10.410;2023-04-28T04:23:46;101400.66;;;2.78;77.50
10510;BME280;5303;53.266;10.410;2023-04-28T04:26:12;101404.31;;;2.83;77.51
10510;BME280;5303;53.266;10.410;2023-04-28T04:28:37;101401.00;;;2.87;77.61
10510;BME280;5303;53.266;10.410;2023-04-28T04:31:02;101399.28;;;2.88;77.76
10510;BME280;5303;53.266;10.410;2023-04-28T04:33:28;101395.06;;;2.92;77.48
10510;BME280;5303;53.266;10.410;2023-04-28T04:35:53;101383.91;;;2.96;77.75
10510;BME280;5303;53.266;10.410;2023-04-28T04:38:19;101384.16;;;3.02;77.36
10510;BME280;5303;53.266;10.410;2023-04-28T04:40:44;101383.41;;;3.06;77.66
10510;BME280;5303;53.266;10.410;2023-04-28T04:43:09;101381.06;;;3.12;77.15
10510;BME280;5303;53.266;10.410;2023-04-28T04:45:35;101383.06;;;3.19;77.10
10510;BME280;5303;53.266;10.410;2023-04-28T04:48:01;101377.16;;;3.25;77.36
10510;BME280;5303;53.266;10.410;2023-04-28T04:50:26;101368.72;;;3.32;76.88
10510;BME280;5303;53.266;10.410;2023-04-28T04:52:51;101365.59;;;3.42;76.56
10510;BME280;5303;53.266;10.410;2023-04-28T04:55:18;101359.00;;;3.52;76.31
10510;BME280;5303;53.266;10.410;2023-04-28T04:57:43;101367.13;;;3.61;76.04
10510;BME280;5303;53.266;10.410;2023-04-28T05:00:09;101363.09;;;3.70;75.82
10510;BME280;5303;53.266;10.410;2023-04-28T05:02:35;101366.06;;;3.81;75.50
10510;BME280;5303;53.266;10.410;2023-04-28T05:05:00;101357.72;;;3.91;75.76
10510;BME280;5303;53.266;10.410;2023-04-28T05:07:25;101359.78;;;4.01;74.65
10510;BME280;5303;53.266;10.410;2023-04-28T05:09:51;101359.06;;;4.07;72.48
10510;BME280;5303;53.266;10.410;2023-04-28T05:12:16;101357.59;;;4.15;72.50
10510;BME280;5303;53.266;10.410;2023-04-28T05:14:41;101355.31;;;4.26;72.02
10510;BME280;5303;53.266;10.410;2023-04-28T05:17:06;101353.94;;;4.37;71.35
10510;BME280;5303;53.266;10.410;2023-04-28T05:19:32;101349.81;;;4.45;70.90
10510;BME280;5303;53.266;10.410;2023-04-28T05:21:57;101351.84;;;4.54;70.39
10510;BME280;5303;53.266;10.410;2023-04-28T05:24:22;101354.69;;;4.61;69.65
10510;BME280;5303;53.266;10.410;2023-04-28T05:26:49;101343.63;;;4.70;69.21
10510;BME280;5303;53.266;10.410;2023-04-28T05:29:16;101341.41;;;4.84;69.23
10510;BME280;5303;53.266;10.410;2023-04-28T05:31:42;101350.50;;;4.98;69.63
10510;BME280;5303;53.266;10.410;2023-04-28T05:34:07;101341.22;;;5.09;68.55
10510;BME280;5303;53.266;10.410;2023-04-28T05:36:32;101334.56;;;5.20;68.64
10510;BME280;5303;53.266;10.410;2023-04-28T05:38:58;101332.31;;;5.34;67.36
10510;BME280;5303;53.266;10.410;2023-04-28T05:41:24;101327.50;;;5.51;66.69
10510;BME280;5303;53.266;10.410;2023-04-28T05:43:50;101321.44;;;5.87;64.18
10510;BME280;5303;53.266;10.410;2023-04-28T05:46:16;101321.81;;;6.02;62.76
10510;BME280;5303;53.266;10.410;2023-04-28T05:48:41;101314.63;;;6.31;60.61
10510;BME280;5303;53.266;10.410;2023-04-28T05:51:06;101320.19;;;6.45;58.86
10510;BME280;5303;53.266;10.410;2023-04-28T05:53:32;101317.56;;;6.45;58.65
10510;BME280;5303;53.266;10.410;2023-04-28T05:55:57;101312.91;;;6.72;57.94
10510;BME280;5303;53.266;10.410;2023-04-28T05:58:22;101313.31;;;6.93;56.92
10510;BME280;5303;53.266;10.410;2023-04-28T06:00:48;101305.41;;;6.90;57.00
10510;BME280;5303;53.266;10.410;2023-04-28T06:03:13;101301.28;;;7.05;56.71
10510;BME280;5303;53.266;10.410;2023-04-28T06:05:42;101309.50;;;7.21;56.11
10510;BME280;5303;53.266;10.410;2023-04-28T06:08:07;101306.13;;;7.27;55.92
10510;BME280;5303;53.266;10.410;2023-04-28T06:10:33;101298.13;;;7.21;56.49
10510;BME280;5303;53.266;10.410;2023-04-28T06:12:58;101301.59;;;7.20;57.22
10510;BME280;5303;53.266;10.410;2023-04-28T06:15:23;101310.44;;;7.25;56.63
10510;BME280;5303;53.266;10.410;2023-04-28T06:17:48;101312.28;;;7.29;57.01
10510;BME280;5303;53.266;10.410;2023-04-28T06:20:14;101300.19;;;7.37;56.35
10510;BME280;5303;53.266;10.410;2023-04-28T06:22:40;101307.22;;;7.41;55.94
10510;BME280;5303;53.266;10.410;2023-04-28T06:25:06;101310.97;;;7.56;54.27
10510;BME280;5303;53.266;10.410;2023-04-28T06:27:31;101311.13;;;7.65;55.97
10510;BME280;5303;53.266;10.410;2023-04-28T06:29:57;101299.75;;;7.64;55.51
10510;BME280;5303;53.266;10.410;2023-04-28T06:32:23;101310.34;;;7.69;56.19
10510;BME280;5303;53.266;10.410;2023-04-28T06:34:48;101299.91;;;7.75;55.38
10510;BME280;5303;53.266;10.410;2023-04-28T06:37:14;101293.81;;;7.76;55.32
10510;BME280;5303;53.266;10.410;2023-04-28T06:39:39;101300.06;;;7.84;55.41
10510;BME280;5303;53.266;10.410;2023-04-28T06:42:04;101297.00;;;8.11;54.88
10510;BME280;5303;53.266;10.410;2023-04-28T06:44:30;101294.41;;;8.16;53.73
10510;BME280;5303;53.266;10.410;2023-04-28T06:46:56;101295.38;;;8.21;53.95
10510;BME280;5303;53.266;10.410;2023-04-28T06:49:21;101293.09;;;8.45;53.72
10510;BME280;5303;53.266;10.410;2023-04-28T06:51:46;101287.22;;;8.64;52.90
10510;BME280;5303;53.266;10.410;2023-04-28T06:54:11;101289.81;;;8.58;53.30
10510;BME280;5303;53.266;10.410;2023-04-28T06:56:37;101281.25;;;8.78;52.56
10510;BME280;5303;53.266;10.410;2023-04-28T06:59:03;101281.44;;;8.93;51.42
10510;BME280;5303;53.266;10.410;2023-04-28T07:01:28;101273.88;;;9.27;49.80
10510;BME280;5303;53.266;10.410;2023-04-28T07:03:53;101275.53;;;9.18;50.58
10510;BME280;5303;53.266;10.410;2023-04-28T07:06:19;101261.50;;;9.16;51.24
10510;BME280;5303;53.266;10.410;2023-04-28T07:08:44;101271.22;;;9.23;50.57
10510;BME280;5303;53.266;10.410;2023-04-28T07:11:09;101266.06;;;9.33;50.32
10510;BME280;5303;53.266;10.410;2023-04-28T07:13:35;101258.28;;;9.48;49.34
10510;BME280;5303;53.266;10.410;2023-04-28T07:16:00;101257.38;;;9.46;49.67
10510;BME280;5303;53.266;10.410;2023-04-28T07:18:26;101251.22;;;9.45;50.14
10510;BME280;5303;53.266;10.410;2023-04-28T07:20:51;101258.25;;;9.45;50.87
10510;BME280;5303;53.266;10.410;2023-04-28T07:23:16;101246.13;;;9.65;49.19
10510;BME280;5303;53.266;10.410;2023-04-28T07:25:42;101247.91;;;9.68;49.08
10510;BME280;5303;53.266;10.410;2023-04-28T07:28:08;101238.44;;;9.94;47.10
10510;BME280;5303;53.266;10.410;2023-04-28T07:30:33;101234.03;;;9.96;47.75
10510;BME280;5303;53.266;10.410;2023-04-28T07:33:00;101238.56;;;10.16;46.78
10510;BME280;5303;53.266;10.410;2023-04-28T07:35:25;101237.84;;;10.47;44.96
10510;BME280;5303;53.266;10.410;2023-04-28T07:37:51;101238.75;;;10.48;45.24
10510;BME280;5303;53.266;10.410;2023-04-28T07:40:17;101235.22;;;10.46;46.31
10510;BME280;5303;53.266;10.410;2023-04-28T07:42:43;101238.75;;;10.48;46.73
10510;BME280;5303;53.266;10.410;2023-04-28T07:45:09;101226.50;;;10.65;45.30
10510;BME280;5303;53.266;10.410;2023-04-28T07:47:35;101230.03;;;10.67;45.65
10510;BME280;5303;53.266;10.410;2023-04-28T07:50:01;101230.09;;;11.01;44.57
10510;BME280;5303;53.266;10.410;2023-04-28T07:52:31;101230.13;;;11.10;43.81
10510;BME280;5303;53.266;10.410;2023-04-28T07:54:57;101227.44;;;11.01;43.01
10510;BME280;5303;53.266;10.410;2023-04-28T07:57:23;101223.94;;;10.99;43.75
10510;BME280;5303;53.266;10.410;2023-04-28T07:59:48;101223.06;;;10.93;43.76
10510;BME280;5303;53.266;10.410;2023-04-28T08:02:14;101223.03;;;10.87;44.55
10510;BME280;5303;53.266;10.410;2023-04-28T08:04:40;101217.78;;;11.12;43.34
10510;BME280;5303;53.266;10.410;2023-04-28T08:07:05;101215.13;;;11.03;44.39
10510;BME280;5303;53.266;10.410;2023-04-28T08:09:31;101207.22;;;11.10;44.00
10510;BME280;5303;53.266;10.410;2023-04-28T08:11:56;101218.69;;;11.24;43.53
10510;BME280;5303;53.266;10.410;2023-04-28T08:14:23;101216.03;;;11.20;44.10
10510;BME280;5303;53.266;10.410;2023-04-28T08:16:48;101212.53;;;11.21;43.49
10510;BME280;5303;53.266;10.410;2023-04-28T08:19:13;101209.00;;;11.31;43.01
10510;BME280;5303;53.266;10.410;2023-04-28T08:21:39;101210.75;;;11.31;42.21
10510;BME280;5303;53.266;10.410;2023-04-28T08:24:04;101214.28;;;11.31;42.41
10510;BME280;5303;53.266;10.410;2023-04-28T08:26:29;101211.66;;;11.40;42.69
10510;BME280;5303;53.266;10.410;2023-04-28T08:28:55;101216.94;;;11.46;43.65
10510;BME280;5303;53.266;10.410;2023-04-28T08:31:20;101207.22;;;11.71;41.08
10510;BME280;5303;53.266;10.410;2023-04-28T08:33:46;101209.84;;;11.73;41.81
10510;BME280;5303;53.266;10.410;2023-04-28T08:36:14;101204.56;;;11.99;41.25
10510;BME280;5303;53.266;10.410;2023-04-28T08:38:40;101208.03;;;12.21;40.79
10510;BME280;5303;53.266;10.410;2023-04-28T08:41:06;101199.19;;;12.28;40.75
10510;BME280;5303;53.266;10.410;2023-04-28T08:43:33;101200.00;;;12.47;40.95
10510;BME280;5303;53.266;10.410;2023-04-28T08:45:59;101194.69;;;12.45;40.70
10510;BME280;5303;53.266;10.410;2023-04-28T08:48:32;101197.31;;;12.45;40.19
10510;BME280;5303;53.266;10.410;2023-04-28T08:51:03;101201.66;;;12.67;39.86
10510;BME280;5303;53.266;10.410;2023-04-28T08:53:30;101192.00;;;12.53;39.87
10510;BME280;5303;53.266;10.410;2023-04-28T08:55:57;101188.47;;;12.57;41.02
10510;BME280;5303;53.266;10.410;2023-04-28T08:58:23;101188.44;;;12.60;39.58
10510;BME280;5303;53.266;10.410;2023-04-28T09:00:52;101198.78;;;13.01;38.80
10510;BME280;5303;53.266;10.410;2023-04-28T09:03:18;101182.78;;;13.15;39.17
10510;BME280;5303;53.266;10.410;2023-04-28T09:05:44;101183.78;;;13.00;38.84
10510;BME280;5303;53.266;10.410;2023-04-28T09:08:09;101186.19;;;13.34;37.33
10510;BME280;5303;53.266;10.410;2023-04-28T09:10:37;101182.84;;;13.06;38.74
10510;BME280;5303;53.266;10.410;2023-04-28T09:13:03;101180.06;;;13.25;39.09
10510;BME280;5303;53.266;10.410;2023-04-28T09:15:36;101175.59;;;13.35;37.40
10510;BME280;5303;53.266;10.410;2023-04-28T09:18:06;101187.13;;;13.30;39.74
10510;BME280;5303;53.266;10.410;2023-04-28T09:20:33;101176.50;;;13.31;39.33
10510;BME280;5303;53.266;10.410;2023-04-28T09:25:38;101166.50;;;13.62;38.49
10510;BME280;5303;53.266;10.410;2023-04-28T09:28:19;101161.13;;;13.71;38.16
10510;BME280;5303;53.266;10.410;2023-04-28T09:30:48;101165.66;;;13.57;38.25
10510;BME280;5303;53.266;10.410;2023-04-28T09:33:13;101153.06;;;13.77;38.69
10510;BME280;5303;53.266;10.410;2023-04-28T09:35:41;101142.47;;;13.77;38.72
10510;BME280;5303;53.266;10.410;2023-04-28T09:38:06;101148.66;;;13.78;39.04
10510;BME280;5303;53.266;10.410;2023-04-28T09:40:32;101147.03;;;13.65;38.94
10510;BME280;5303;53.266;10.410;2023-04-28T09:42:58;101150.41;;;13.80;38.55
10510;BME280;5303;53.266;10.410;2023-04-28T09:45:23;101152.81;;;14.03;38.02
10510;BME280;5303;53.266;10.410;2023-04-28T09:47:49;101154.63;;;14.00;38.27
10510;BME280;5303;53.266;10.410;2023-04-28T09:50:16;101145.75;;;14.01;37.96
10510;BME280;5303;53.266;10.410;2023-04-28T09:52:43;101150.63;;;14.34;36.55
10510;BME280;5303;53.266;10.410;2023-04-28T09:55:11;101145.28;;;14.37;36.85
10510;BME280;5303;53.266;10.410;2023-04-28T09:57:37;101148.88;;;14.33;37.21
10510;BME280;5303;53.266;10.410;2023-04-28T10:00:04;101139.06;;;14.41;36.85
10510;BME280;5303;53.266;10.410;2023-04-28T10:02:31;101143.63;;;14.30;37.61
10510;BME280;5303;53.266;10.410;2023-04-28T10:04:56;101136.53;;;14.32;38.69
10510;BME280;5303;53.266;10.410;2023-04-28T10:07:22;101132.91;;;14.36;39.01
10510;BME280;5303;53.266;10.410;2023-04-28T10:09:47;101131.06;;;14.45;39.34
10510;BME280;5303;53.266;10.410;2023-04-28T10:12:22;101127.25;;;14.64;38.95
10510;BME280;5303;53.266;10.410;2023-04-28T10:14:50;101125.13;;;14.87;37.77
10510;BME280;5303;53.266;10.410;2023-04-28T10:17:19;101117.22;;;14.84;36.21
10510;BME280;5303;53.266;10.410;2023-04-28T10:19:46;101112.19;;;14.64;38.27
10510;BME280;5303;53.266;10.410;2023-04-28T10:25:07;101111.06;;;14.82;37.74
10510;BME280;5303;53.266;10.410;2023-04-28T10:27:41;101103.94;;;14.81;37.82
10510;BME280;5303;53.266;10.410;2023-04-28T10:32:36;101097.19;;;15.16;38.24
10510;BME280;5303;53.266;10.410;2023-04-28T10:38:02;101083.94;;;15.14;38.53
10510;BME280;5303;53.266;10.410;2023-04-28T10:43:05;101073.09;;;15.74;36.23
10510;BME280;5303;53.266;10.410;2023-04-28T10:48:18;101077.84;;;15.08;38.38
10510;BME280;5303;53.266;10.410;2023-04-28T10:58:34;101070.97;;;14.96;38.12
10510;BME280;5303;53.266;10.410;2023-04-28T11:06:23;101055.22;;;15.35;37.69
10510;BME280;5303;53.266;10.410;2023-04-28T11:17:02;101055.69;;;15.09;38.08
10510;BME280;5303;53.266;10.410;2023-04-28T11:19:36;101053.78;;;15.17;37.98
10510;BME280;5303;53.266;10.410;2023-04-28T11:22:14;101047.28;;;15.32;38.30
10510;BME280;5303;53.266;10.410;2023-04-28T11:24:39;101041.97;;;15.33;38.65
10510;BME280;5303;53.266;10.410;2023-04-28T11:27:05;101041.66;;;15.48;38.15
10510;BME280;5303;53.266;10.410;2023-04-28T11:29:38;101046.59;;;15.68;36.94
10510;BME280;5303;53.266;10.410;2023-04-28T11:32:05;101043.06;;;15.68;36.22
10510;BME280;5303;53.266;10.410;2023-04-28T11:34:31;101047.47;;;15.69;37.13
10510;BME280;5303;53.266;10.410;2023-04-28T11:36:56;101043.22;;;15.60;36.73
10510;BME280;5303;53.266;10.410;2023-04-28T11:39:29;101037.88;;;15.63;38.30
10510;BME280;5303;53.266;10.410;2023-04-28T11:42:08;101033.34;;;15.67;38.10
10510;BME280;5303;53.266;10.410;2023-04-28T11:44:34;101029.56;;;15.78;35.91
10510;BME280;5303;53.266;10.410;2023-04-28T11:47:01;101024.56;;;15.62;36.59
10510;BME280;5303;53.266;10.410;2023-04-28T11:49:31;101018.13;;;15.75;38.37
10510;BME280;5303;53.266;10.410;2023-04-28T11:52:04;101017.44;;;16.04;37.13
10510;BME280;5303;53.266;10.410;2023-04-28T11:54:30;101026.16;;;16.12;36.88
10510;BME280;5303;53.266;10.410;2023-04-28T11:56:57;101019.25;;;16.03;36.92
10510;BME280;5303;53.266;10.410;2023-04-28T11:59:27;101021.66;;;16.16;36.48
10510;BME280;5303;53.266;10.410;2023-04-28T12:01:54;101023.72;;;16.01;36.27
10510;BME280;5303;53.266;10.410;2023-04-28T12:04:40;101019.31;;;16.00;36.69
10510;BME280;5303;53.266;10.410;2023-04-28T12:07:13;101006.88;;;16.01;37.55
10510;BME280;5303;53.266;10.410;2023-04-28T12:12:27;101005.47;;;16.25;37.96
10510;BME280;5303;53.266;10.410;2023-04-28T12:14:57;101000.56;;;16.43;37.94
10510;BME280;5303;53.266;10.410;2023-04-28T12:17:27;101000.16;;;16.25;37.72
10510;BME280;5303;53.266;10.410;2023-04-28T12:19:57;100988.91;;;16.49;36.72
10510;BME280;5303;53.266;10.410;2023-04-28T12:22:24;100989.03;;;16.43;37.44
10510;BME280;5303;53.266;10.410;2023-04-28T12:25:06;100989.25;;;16.34;38.07
10510;BME280;5303;53.266;10.410;2023-04-28T12:27:33;100978.34;;;16.46;37.43
10510;BME280;5303;53.266;10.410;2023-04-28T12:29:58;100982.63;;;16.52;37.58
10510;BME280;5303;53.266;10.410;2023-04-28T12:32:56;100984.19;;;16.25;38.26
10510;BME280;5303;53.266;10.410;2023-04-28T12:35:22;100980.94;;;16.48;37.69
10510;BME280;5303;53.266;10.410;2023-04-28T12:37:47;100970.88;;;16.23;38.58
10510;BME280;5303;53.266;10.410;2023-04-28T12:40:13;100971.53;;;16.33;37.57
10510;BME280;5303;53.266;10.410;2023-04-28T12:42:39;100966.84;;;16.07;37.30
10510;BME280;5303;53.266;10.410;2023-04-28T12:45:05;100965.94;;;15.68;38.83
10510;BME280;5303;53.266;10.410;2023-04-28T12:47:30;100967.38;;;15.84;39.07
10510;BME280;5303;53.266;10.410;2023-04-28T12:49:56;100972.63;;;15.87;38.66
10510;BME280;5303;53.266;10.410;2023-04-28T12:52:21;100961.06;;;15.88;38.78
10510;BME280;5303;53.266;10.410;2023-04-28T12:54:47;100962.69;;;15.95;39.58
10510;BME280;5303;53.266;10.410;2023-04-28T12:57:16;100959.09;;;15.96;39.14
10510;BME280;5303;53.266;10.410;2023-04-28T12:59:42;100961.81;;;15.93;39.67
10510;BME280;5303;53.266;10.410;2023-04-28T13:02:08;100949.44;;;15.92;40.08
10510;BME280;5303;53.266;10.410;2023-04-28T13:04:34;100948.94;;;16.13;38.44
10510;BME280;5303;53.266;10.410;2023-04-28T13:06:59;100948.78;;;16.20;38.37
10510;BME280;5303;53.266;10.410;2023-04-28T13:09:25;100939.97;;;16.18;40.02
10510;BME280;5303;53.266;10.410;2023-04-28T13:11:51;100940.81;;;16.20;40.06
10510;BME280;5303;53.266;10.410;2023-04-28T13:14:19;100943.59;;;16.13;39.14
10510;BME280;5303;53.266;10.410;2023-04-28T13:16:45;100940.00;;;16.16;39.36
10510;BME280;5303;53.266;10.410;2023-04-28T13:19:11;100941.19;;;16.04;39.78
10510;BME280;5303;53.266;10.410;2023-04-28T13:21:38;100938.44;;;16.07;39.72
10510;BME280;5303;53.266;10.410;2023-04-28T13:24:06;100930.25;;;16.17;39.71
10510;BME280;5303;53.266;10.410;2023-04-28T13:26:31;100924.53;;;16.32;38.04
10510;BME280;5303;53.266;10.410;2023-04-28T13:28:57;100917.72;;;16.54;37.88
10510;BME280;5303;53.266;10.410;2023-04-28T13:31:22;100918.13;;;16.75;37.69